createdAt,value
2023-02-24T00:02:31.228Z,3.23
2023-02-24T00:05:44.390Z,2.93
2023-02-24T00:08:53.519Z,3.50
2023-02-24T00:12:05.129Z,2.80
2023-02-24T00:15:15.310Z,3.37
2023-02-24T00:18:23.671Z,3.00
2023-02-24T00:21:32.132Z,2.83
2023-02-24T00:24:40.373Z,3.40
2023-02-24T00:27:48.639Z,4.37
2023-02-24T00:30:58.369Z,3.90
2023-02-24T00:34:07.657Z,3.30
2023-02-24T00:37:16.340Z,3.00
2023-02-24T00:40:26.767Z,3.53
2023-02-24T00:43:37.111Z,2.20
2023-02-24T00:46:48.054Z,3.00
2023-02-24T00:49:56.636Z,3.00
2023-02-24T00:53:04.883Z,2.87
2023-02-24T00:56:13.628Z,3.60
2023-02-24T00:59:23.978Z,3.40
2023-02-24T01:02:33.625Z,3.60
2023-02-24T01:05:41.816Z,2.93
2023-02-24T01:08:50.897Z,4.07
2023-02-24T01:12:17.554Z,3.67
2023-02-24T01:15:26.384Z,3.70
2023-02-24T01:18:36.602Z,3.53
2023-02-24T01:21:46.152Z,3.10
2023-02-24T01:24:54.462Z,2.77
2023-02-24T01:28:02.855Z,2.73
2023-02-24T01:31:17.665Z,3.37
2023-02-24T01:34:29.009Z,2.90
2023-02-24T01:37:40.098Z,3.03
2023-02-24T01:40:58.342Z,3.00
2023-02-24T01:44:10.047Z,2.50
2023-02-24T01:47:21.583Z,2.70
2023-02-24T01:50:33.042Z,2.50
2023-02-24T01:53:41.373Z,2.80
2023-02-24T01:56:52.356Z,2.40
2023-02-24T02:00:25.589Z,2.13
2023-02-24T02:03:38.969Z,2.43
2023-02-24T02:06:49.749Z,2.40
2023-02-24T02:14:52.398Z,2.40
2023-02-24T02:18:10.421Z,2.50
2023-02-24T02:21:56.301Z,2.27
2023-02-24T02:25:16.553Z,2.63
2023-02-24T02:28:59.002Z,2.87
2023-02-24T02:32:43.954Z,2.23
2023-02-24T02:36:03.262Z,2.40
2023-02-24T02:39:23.895Z,2.33
2023-02-24T02:42:43.920Z,2.57
2023-02-24T02:46:03.662Z,2.73
2023-02-24T02:49:20.787Z,2.53
2023-02-24T02:52:42.288Z,2.27
2023-02-24T02:55:59.236Z,2.40
2023-02-24T02:59:12.769Z,3.20
2023-02-24T03:02:28.405Z,3.27
2023-02-24T03:05:46.984Z,3.00
2023-02-24T03:09:11.342Z,3.03
2023-02-24T03:12:24.382Z,2.80
2023-02-24T03:15:35.271Z,2.93
2023-02-24T03:18:53.045Z,2.60
2023-02-24T03:22:12.236Z,2.27
2023-02-24T03:25:30.200Z,2.33
2023-02-24T03:28:46.445Z,2.60
2023-02-24T03:32:05.483Z,2.93
2023-02-24T03:35:21.812Z,2.40
2023-02-24T03:38:34.052Z,3.00
2023-02-24T03:41:56.198Z,3.10
2023-02-24T03:45:07.812Z,2.90
2023-02-24T03:48:17.345Z,2.47
2023-02-24T03:51:27.670Z,2.47
2023-02-24T03:55:00.154Z,2.73
2023-02-24T03:58:22.996Z,2.63
2023-02-24T04:01:43.041Z,2.60
2023-02-24T04:05:00.532Z,2.33
2023-02-24T04:08:20.167Z,2.40
2023-02-24T04:11:38.997Z,2.07
2023-02-24T04:14:58.247Z,2.43
2023-02-24T04:18:16.655Z,2.73
2023-02-24T04:21:31.286Z,2.47
2023-02-24T04:24:42.770Z,2.60
2023-02-24T04:27:53.163Z,2.40
2023-02-24T04:31:11.189Z,2.70
2023-02-24T04:34:21.427Z,2.13
2023-02-24T04:37:33.858Z,2.50
2023-02-24T04:40:43.615Z,2.07
2023-02-24T04:43:52.335Z,2.40
2023-02-24T04:47:01.946Z,2.40
2023-02-24T04:50:12.280Z,2.70
2023-02-24T04:53:26.873Z,3.43
2023-02-24T04:56:35.609Z,3.10
2023-02-24T04:59:44.250Z,2.73
2023-02-24T05:02:57.385Z,3.57
2023-02-24T05:06:08.629Z,3.03
2023-02-24T05:09:19.045Z,3.07
2023-02-24T05:17:08.647Z,3.00
2023-02-24T05:20:36.782Z,3.10
2023-02-24T05:23:47.654Z,3.17
2023-02-24T05:26:59.448Z,3.37
2023-02-24T05:30:09.725Z,3.70
2023-02-24T05:33:21.527Z,3.23
2023-02-24T05:36:36.446Z,3.50
2023-02-24T05:39:45.069Z,3.33
2023-02-24T05:42:53.615Z,3.47
2023-02-24T05:46:03.794Z,3.33
2023-02-24T05:49:16.313Z,3.40
2023-02-24T05:56:08.396Z,3.17
2023-02-24T05:59:21.360Z,3.93
2023-02-24T06:02:37.183Z,3.87
2023-02-24T06:05:45.486Z,4.03
2023-02-24T06:08:55.332Z,3.30
2023-02-24T06:12:05.797Z,3.93
2023-02-24T06:15:14.189Z,4.50
2023-02-24T06:18:22.368Z,4.70
2023-02-24T06:21:30.786Z,4.20
2023-02-24T06:24:39.488Z,3.40
2023-02-24T06:27:53.412Z,2.77
2023-02-24T06:31:06.783Z,3.07
2023-02-24T06:34:15.203Z,4.50
2023-02-24T06:37:23.753Z,2.77
2023-02-24T06:40:31.913Z,2.83
2023-02-24T06:43:44.662Z,3.57
2023-02-24T06:46:52.782Z,2.50
2023-02-24T06:50:00.918Z,2.80
2023-02-24T06:53:16.897Z,3.07
2023-02-24T06:56:25.275Z,3.17
2023-02-24T06:59:34.877Z,3.80
2023-02-24T07:02:43.195Z,3.20
2023-02-24T07:06:10.923Z,3.73
2023-02-24T07:09:23.249Z,3.87
2023-02-24T07:12:31.347Z,3.50
2023-02-24T07:15:40.910Z,3.60
2023-02-24T07:18:50.111Z,2.93
2023-02-24T07:22:02.242Z,3.37
2023-02-24T07:25:30.397Z,4.37
2023-02-24T07:28:40.226Z,3.67
2023-02-24T07:31:54.977Z,3.40
2023-02-24T07:35:03.502Z,3.87
2023-02-24T07:38:17.460Z,4.20
2023-02-24T07:41:28.456Z,4.93
2023-02-24T07:44:38.996Z,5.17
2023-02-24T07:47:49.509Z,4.70
2023-02-24T07:50:59.391Z,6.13
2023-02-24T07:54:08.869Z,6.43
2023-02-24T07:57:19.014Z,4.10
2023-02-24T08:00:28.432Z,3.77
2023-02-24T08:03:41.466Z,3.73
2023-02-24T08:06:56.390Z,4.07
2023-02-24T08:10:14.263Z,3.20
2023-02-24T08:13:22.690Z,3.00
2023-02-24T08:16:39.513Z,2.90
2023-02-24T08:20:17.267Z,2.90
2023-02-24T08:23:25.734Z,4.83
2023-02-24T08:26:41.727Z,3.53
2023-02-24T08:30:02.897Z,3.57
2023-02-24T08:33:16.081Z,3.73
2023-02-24T08:36:26.135Z,3.60
2023-02-24T08:39:36.653Z,3.93
2023-02-24T08:42:45.019Z,4.40
2023-02-24T08:45:57.665Z,3.80
2023-02-24T08:49:10.784Z,4.40
2023-02-24T08:52:20.558Z,5.13
2023-02-24T08:55:33.067Z,5.33
2023-02-24T08:58:47.525Z,6.63
2023-02-24T09:02:17.605Z,6.03
2023-02-24T09:05:26.078Z,5.90
2023-02-24T09:08:39.098Z,6.40
2023-02-24T09:11:49.386Z,6.73
2023-02-24T09:15:01.299Z,6.83
2023-02-24T09:18:14.212Z,7.07
2023-02-24T09:21:39.847Z,7.03
2023-02-24T09:25:10.085Z,6.70
2023-02-24T09:28:24.574Z,6.20
2023-02-24T09:31:48.117Z,6.10
2023-02-24T09:34:56.560Z,6.13
2023-02-24T09:38:06.521Z,7.13
2023-02-24T09:41:53.864Z,6.80
2023-02-24T09:45:11.455Z,7.33
2023-02-24T09:48:32.043Z,7.87
2023-02-24T09:51:43.493Z,9.50
2023-02-24T09:55:11.292Z,9.00
2023-02-24T09:58:43.670Z,7.10
2023-02-24T10:02:04.016Z,7.17
2023-02-24T10:05:27.354Z,7.23
2023-02-24T10:08:42.108Z,7.27
2023-02-24T10:12:04.316Z,6.80
2023-02-24T10:15:19.890Z,6.67
2023-02-24T10:18:33.204Z,6.70
2023-02-24T10:21:49.897Z,5.93
2023-02-24T10:25:12.312Z,6.00
2023-02-24T10:28:36.709Z,5.53
2023-02-24T10:31:57.788Z,5.13
2023-02-24T10:35:16.560Z,5.53
2023-02-24T10:38:28.670Z,4.63
2023-02-24T10:41:47.968Z,5.20
2023-02-24T10:45:17.961Z,4.70
2023-02-24T10:48:43.602Z,5.27
2023-02-24T10:51:54.617Z,4.73
2023-02-24T10:55:08.792Z,4.47
2023-02-24T10:58:37.830Z,4.43
2023-02-24T11:01:55.099Z,4.63
2023-02-24T11:05:27.290Z,5.40
2023-02-24T11:08:40.023Z,5.90
2023-02-24T11:12:07.359Z,5.27
2023-02-24T11:15:41.049Z,4.80
2023-02-24T11:18:52.638Z,4.33
2023-02-24T11:22:08.772Z,4.37
2023-02-24T11:25:26.866Z,5.13
2023-02-24T11:29:06.651Z,4.33
2023-02-24T11:32:39.272Z,5.20
2023-02-24T11:36:02.588Z,5.60
2023-02-24T11:39:49.042Z,4.80
2023-02-24T11:43:01.884Z,5.43
2023-02-24T11:46:19.241Z,5.53
2023-02-24T11:49:35.417Z,5.80
2023-02-24T11:58:01.420Z,5.23
2023-02-24T12:01:18.467Z,5.33
2023-02-24T12:04:33.826Z,5.47
2023-02-24T12:07:50.327Z,5.37
2023-02-24T12:11:07.154Z,4.67
2023-02-24T12:14:27.708Z,4.13
2023-02-24T12:17:47.226Z,3.67
2023-02-24T12:21:01.704Z,4.40
2023-02-24T12:24:14.540Z,3.90
2023-02-24T12:27:42.370Z,4.67
2023-02-24T12:31:22.273Z,3.63
2023-02-24T12:34:53.245Z,4.30
2023-02-24T12:38:22.484Z,4.73
2023-02-24T12:41:49.655Z,4.30
2023-02-24T12:45:12.316Z,4.40
2023-02-24T12:48:49.102Z,4.17
2023-02-24T12:52:14.954Z,4.57
2023-02-24T12:55:34.034Z,4.40
2023-02-24T12:58:47.224Z,3.90
2023-02-24T13:02:06.392Z,3.73
2023-02-24T13:05:25.024Z,4.13
2023-02-24T13:08:50.362Z,4.53
2023-02-24T13:12:07.954Z,4.17
2023-02-24T13:15:25.332Z,4.73
2023-02-24T13:18:36.975Z,5.23
2023-02-24T13:22:05.363Z,4.87
2023-02-24T13:25:23.578Z,5.70
2023-02-24T13:28:36.459Z,5.00
2023-02-24T13:31:49.238Z,5.50
2023-02-24T13:34:59.743Z,5.97
2023-02-24T13:38:27.919Z,7.00
2023-02-24T13:41:42.475Z,5.40
2023-02-24T13:44:55.262Z,6.40
2023-02-24T13:48:41.112Z,6.13
2023-02-24T13:52:03.641Z,7.30
2023-02-24T13:55:52.223Z,8.83
2023-02-24T13:59:35.053Z,6.67
2023-02-24T14:02:45.210Z,7.10
2023-02-24T14:05:55.475Z,6.93
2023-02-24T14:09:07.603Z,7.70
2023-02-24T14:12:22.320Z,8.03
2023-02-24T14:15:31.521Z,7.63
2023-02-24T14:18:39.799Z,11.23
2023-02-24T14:21:52.012Z,5.63
2023-02-24T14:25:04.597Z,5.97
2023-02-24T14:28:24.574Z,6.03
2023-02-24T14:31:32.916Z,5.77
2023-02-24T14:34:41.999Z,5.87
2023-02-24T14:37:50.292Z,6.73
2023-02-24T14:40:59.405Z,5.50
2023-02-24T14:44:22.598Z,5.50
2023-02-24T14:47:32.594Z,5.63
2023-02-24T14:50:41.477Z,6.77
2023-02-24T14:53:55.593Z,6.20
2023-02-24T14:57:04.911Z,5.97
2023-02-24T15:00:24.926Z,6.27
2023-02-24T15:03:39.255Z,6.17
2023-02-24T15:06:49.069Z,6.83
2023-02-24T15:09:59.028Z,6.87
2023-02-24T15:13:18.015Z,7.67
2023-02-24T15:16:38.397Z,8.63
2023-02-24T15:19:54.390Z,10.05
2023-02-24T15:23:03.892Z,8.50
2023-02-24T15:26:28.115Z,8.57
2023-02-24T15:29:36.536Z,8.63
2023-02-24T15:32:46.619Z,8.93
2023-02-24T15:35:58.991Z,8.90
2023-02-24T15:39:10.710Z,8.90
2023-02-24T15:42:28.443Z,8.20
2023-02-24T15:45:40.209Z,9.13
2023-02-24T15:48:55.477Z,8.70
2023-02-24T15:52:05.257Z,8.77
2023-02-24T15:55:18.142Z,10.33
2023-02-24T15:58:26.843Z,10.00
2023-02-24T16:01:35.624Z,9.33
2023-02-24T16:04:47.198Z,11.43
2023-02-24T16:07:55.804Z,10.90
2023-02-24T16:11:04.114Z,10.50
2023-02-24T16:14:19.240Z,12.20
2023-02-24T16:17:35.059Z,11.27
2023-02-24T16:20:48.825Z,10.20
2023-02-24T16:23:57.369Z,9.87
2023-02-24T16:27:06.644Z,10.37
2023-02-24T16:30:22.482Z,11.97
2023-02-24T16:33:36.715Z,12.37
2023-02-24T16:36:52.077Z,10.73
2023-02-24T16:40:00.776Z,10.77
2023-02-24T16:43:09.739Z,10.60
2023-02-24T16:46:22.396Z,11.57
2023-02-24T16:49:31.291Z,11.57
2023-02-24T16:52:41.770Z,11.37
2023-02-24T16:55:51.720Z,13.00
2023-02-24T16:59:00.898Z,11.27
2023-02-24T17:02:21.790Z,10.77
2023-02-24T17:05:30.462Z,10.97
2023-02-24T17:08:41.786Z,10.27
2023-02-24T17:11:50.395Z,9.83
2023-02-24T17:14:59.385Z,10.33
2023-02-24T17:18:08.853Z,10.57
2023-02-24T17:21:18.476Z,9.70
2023-02-24T17:24:28.677Z,9.83
2023-02-24T17:27:37.818Z,10.37
2023-02-24T17:30:47.223Z,11.00
2023-02-24T17:33:56.394Z,9.13
2023-02-24T17:37:05.662Z,8.93
2023-02-24T17:40:18.672Z,7.73
2023-02-24T17:43:27.660Z,6.60
2023-02-24T17:46:36.503Z,6.40
2023-02-24T17:49:44.942Z,5.73
2023-02-24T17:52:53.716Z,4.90
2023-02-24T17:56:08.799Z,5.77
2023-02-24T17:59:17.439Z,6.93
2023-02-24T18:02:26.001Z,4.60
2023-02-24T18:05:34.588Z,4.73
2023-02-24T18:08:43.278Z,4.30
2023-02-24T18:11:53.190Z,4.57
2023-02-24T18:15:08.748Z,4.53
2023-02-24T18:18:17.968Z,4.97
2023-02-24T18:21:27.274Z,4.37
2023-02-24T18:24:35.735Z,3.80
2023-02-24T18:27:45.408Z,3.00
2023-02-24T18:30:54.009Z,2.50
2023-02-24T18:34:02.775Z,3.77
2023-02-24T18:37:11.109Z,3.33
2023-02-24T18:40:19.850Z,3.80
2023-02-24T18:43:30.218Z,3.10
2023-02-24T18:46:38.816Z,3.23
2023-02-24T18:49:47.120Z,3.17
2023-02-24T18:52:55.436Z,2.83
2023-02-24T18:56:06.692Z,3.57
2023-02-24T18:59:16.876Z,3.83
2023-02-24T19:02:25.046Z,3.57
2023-02-24T19:05:38.378Z,3.67
2023-02-24T19:08:48.769Z,3.17
2023-02-24T19:11:57.147Z,4.63
2023-02-24T19:15:09.272Z,4.60
2023-02-24T19:18:18.357Z,4.27
2023-02-24T19:21:29.484Z,5.60
2023-02-24T19:24:38.022Z,4.87
2023-02-24T19:27:47.686Z,4.97
2023-02-24T19:30:57.517Z,5.00
2023-02-24T19:34:12.147Z,4.97
2023-02-24T19:37:20.785Z,4.63
2023-02-24T19:40:29.084Z,4.77
2023-02-24T19:43:37.640Z,4.77
2023-02-24T19:46:47.790Z,5.50
2023-02-24T19:49:55.934Z,6.20
2023-02-24T19:53:04.823Z,3.30
2023-02-24T19:56:13.399Z,3.47
2023-02-24T19:59:21.742Z,2.83
2023-02-24T20:02:31.743Z,3.30
2023-02-24T20:05:43.506Z,2.63
2023-02-24T20:08:53.814Z,2.57
2023-02-24T20:12:02.439Z,2.60
2023-02-24T20:15:12.074Z,2.60
2023-02-24T20:18:21.861Z,2.77
2023-02-24T20:21:31.602Z,2.90
2023-02-24T20:24:39.765Z,2.67
2023-02-24T20:27:48.119Z,2.70
2023-02-24T20:30:59.229Z,2.50
2023-02-24T20:34:10.703Z,2.53
2023-02-24T20:37:19.355Z,1.90
2023-02-24T20:40:28.700Z,2.70
2023-02-24T20:43:37.550Z,2.20
2023-02-24T20:46:46.108Z,2.40
2023-02-24T20:49:56.162Z,2.40
2023-02-24T20:53:04.812Z,2.87
2023-02-24T20:56:22.029Z,2.57
2023-02-24T20:59:30.422Z,3.00
2023-02-24T21:02:41.118Z,3.40
2023-02-24T21:05:58.836Z,3.13
2023-02-24T21:09:16.312Z,2.47
2023-02-24T21:12:24.906Z,2.87
2023-02-24T21:15:33.119Z,2.73
2023-02-24T21:18:43.873Z,3.27
2023-02-24T21:21:53.764Z,3.13
2023-02-24T21:25:02.497Z,3.00
2023-02-24T21:28:11.398Z,3.63
2023-02-24T21:31:21.693Z,2.47
2023-02-24T21:34:30.597Z,1.63
2023-02-24T21:37:40.974Z,1.30
2023-02-24T21:40:50.049Z,2.00
2023-02-24T21:44:00.521Z,2.43
2023-02-24T21:47:09.549Z,3.00
2023-02-24T21:50:18.917Z,3.13
2023-02-24T21:53:29.894Z,2.00
2023-02-24T21:56:37.997Z,2.40
2023-02-24T21:59:46.668Z,2.10
2023-02-24T22:02:56.926Z,1.40
2023-02-24T22:06:05.975Z,1.27
2023-02-24T22:09:19.465Z,2.40
2023-02-24T22:12:27.949Z,1.70
2023-02-24T22:15:39.661Z,1.70
2023-02-24T22:18:49.226Z,2.10
2023-02-24T22:22:00.518Z,2.70
2023-02-24T22:25:11.861Z,2.60
2023-02-24T22:28:20.273Z,2.20
2023-02-24T22:31:31.821Z,3.43
2023-02-24T22:34:41.495Z,3.07
2023-02-24T22:37:49.564Z,2.83
2023-02-24T22:41:00.950Z,3.13
2023-02-24T22:44:11.060Z,3.03
2023-02-24T22:47:19.470Z,1.40
2023-02-24T22:50:27.873Z,2.83
2023-02-24T22:53:39.506Z,2.97
2023-02-24T22:56:50.256Z,2.47
2023-02-24T22:59:58.961Z,2.83
2023-02-24T23:03:07.114Z,2.23
2023-02-24T23:06:18.673Z,3.07
2023-02-24T23:09:28.070Z,3.00
2023-02-24T23:12:37.999Z,2.83
2023-02-24T23:15:46.410Z,2.70
2023-02-24T23:18:58.278Z,3.13
2023-02-24T23:22:07.988Z,3.43
2023-02-24T23:25:16.296Z,3.87
2023-02-24T23:28:28.034Z,2.90
2023-02-24T23:31:36.554Z,3.00
2023-02-24T23:34:45.825Z,3.00
2023-02-24T23:37:53.910Z,3.23
2023-02-24T23:41:02.615Z,3.97
2023-02-24T23:44:12.469Z,3.87
2023-02-24T23:47:20.888Z,4.33
2023-02-24T23:50:29.296Z,3.50
2023-02-24T23:53:39.668Z,3.30
2023-02-24T23:56:48.361Z,3.23
2023-02-24T23:59:58.900Z,3.00
